Time;durP1;ratioP1;P1;durP2;ratioP2;P2;SDS_P1;SDS_P2;PMS_P1;PMS_P2;Temp;Humidity;BMP_temperature;BMP_pressure;BME280_temperature;BME280_humidity;BME280_pressure;Samples;Min_cycle;Max_cycle;Signal;HPM_P1;HPM_P2
2021/06/28 00:00:16;;;;;;;8.77;7.87;;;;;;;;;;5076051;28;20441;-80
2021/06/28 00:02:43;;;;;;;8.20;7.50;;;;;;;;;;5076250;28;20444;-80
2021/06/28 00:05:12;;;;;;;9.80;7.83;;;;;;;;;;5075465;28;20547;-80
2021/06/28 00:07:39;;;;;;;8.40;7.60;;;;;;;;;;5075687;28;20467;-80
2021/06/28 00:10:07;;;;;;;9.10;7.80;;;;;;;;;;5076382;28;20543;-80
2021/06/28 00:12:34;;;;;;;9.33;8.53;;;;;;;;;;5076008;28;20468;-79
2021/06/28 00:15:03;;;;;;;11.53;8.33;;;;;;;;;;5076098;28;20447;-80
2021/06/28 00:17:30;;;;;;;9.37;8.03;;;;;;;;;;5076731;28;20789;-80
2021/06/28 00:19:57;;;;;;;9.03;8.20;;;;;;;;;;5076245;28;20439;-80
2021/06/28 00:22:25;;;;;;;10.13;8.60;;;;;;;;;;5075908;28;20455;-80
2021/06/28 00:24:52;;;;;;;11.10;8.63;;;;;;;;;;5075547;28;20447;-80
2021/06/28 00:27:22;;;;;;;9.60;8.60;;;;;;;;;;5076082;28;20808;-80
2021/06/28 00:29:50;;;;;;;9.67;8.77;;;;;;;;;;5075966;28;20492;-80
2021/06/28 00:32:18;;;;;;;8.90;8.10;;;;;;;;;;5075348;28;21013;-80
2021/06/28 00:34:46;;;;;;;9.47;8.77;;;;;;;;;;5075319;28;20938;-80
2021/06/28 00:37:13;;;;;;;9.00;8.30;;;;;;;;;;5075586;28;20455;-80
2021/06/28 00:39:40;;;;;;;9.83;9.03;;;;;;;;;;5075619;28;20443;-81
2021/06/28 00:42:08;;;;;;;9.90;9.10;;;;;;;;;;5076363;28;20536;-81
2021/06/28 00:44:35;;;;;;;9.90;8.93;;;;;;;;;;5075534;28;20465;-81
2021/06/28 00:47:02;;;;;;;11.50;9.40;;;;;;;;;;5075638;28;20565;-82
2021/06/28 00:49:31;;;;;;;10.70;9.70;;;;;;;;;;5075064;28;20442;-82
2021/06/28 00:51:59;;;;;;;14.50;9.90;;;;;;;;;;5075383;28;20447;-82
2021/06/28 00:54:26;;;;;;;10.57;9.60;;;;;;;;;;5075538;28;20980;-83
2021/06/28 00:56:54;;;;;;;10.93;9.83;;;;;;;;;;5075120;28;20454;-82
2021/06/28 00:59:22;;;;;;;11.70;10.50;;;;;;;;;;5075085;28;20527;-82
2021/06/28 01:01:49;;;;;;;10.40;9.40;;;;;;;;;;5075303;28;20439;-82
2021/06/28 01:04:16;;;;;;;10.33;9.23;;;;;;;;;;5074837;28;20447;-83
2021/06/28 01:06:45;;;;;;;11.40;10.23;;;;;;;;;;5075202;28;20548;-82
2021/06/28 01:09:12;;;;;;;11.40;10.20;;;;;;;;;;5074788;28;20450;-83
2021/06/28 01:11:40;;;;;;;10.50;8.90;;;;;;;;;;5074964;28;20448;-83
2021/06/28 01:14:07;;;;;;;10.33;9.30;;;;;;;;;;5075142;28;20482;-84
2021/06/28 01:16:34;;;;;;;10.90;9.73;;;;;;;;;;5074380;28;20441;-84
2021/06/28 01:19:01;;;;;;;11.43;10.33;;;;;;;;;;5074907;28;20773;-84
2021/06/28 01:21:29;;;;;;;10.53;9.63;;;;;;;;;;5074843;28;20473;-84
2021/06/28 01:23:58;;;;;;;12.33;10.60;;;;;;;;;;5074970;28;20474;-81
2021/06/28 01:26:25;;;;;;;10.43;9.50;;;;;;;;;;5074727;28;20536;-81
2021/06/28 01:28:53;;;;;;;11.40;10.30;;;;;;;;;;5074411;28;20468;-82
2021/06/28 01:31:20;;;;;;;12.60;11.30;;;;;;;;;;5074591;28;20441;-83
2021/06/28 01:33:47;;;;;;;12.13;10.90;;;;;;;;;;5074621;28;20480;-82
2021/06/28 01:36:14;;;;;;;11.90;10.23;;;;;;;;;;5074148;28;20987;-82
2021/06/28 01:38:41;;;;;;;10.87;9.80;;;;;;;;;;5074409;28;20451;-82
2021/06/28 01:41:10;;;;;;;12.00;10.90;;;;;;;;;;5074437;28;20433;-82
2021/06/28 01:43:37;;;;;;;12.07;11.07;;;;;;;;;;5074664;28;20880;-82
2021/06/28 01:46:04;;;;;;;11.63;10.50;;;;;;;;;;5074199;28;20473;-81
2021/06/28 01:48:31;;;;;;;12.13;11.07;;;;;;;;;;5074415;28;20425;-81
2021/06/28 01:50:59;;;;;;;13.13;11.73;;;;;;;;;;5074005;28;20454;-82
2021/06/28 01:53:26;;;;;;;12.80;11.37;;;;;;;;;;5074113;28;20473;-82
2021/06/28 01:55:53;;;;;;;12.50;11.10;;;;;;;;;;5074175;28;20433;-82
2021/06/28 01:58:22;;;;;;;13.93;12.27;;;;;;;;;;5074154;28;20786;-81
2021/06/28 02:00:50;;;;;;;13.07;11.87;;;;;;;;;;5073823;28;20442;-82
2021/06/28 02:03:19;;;;;;;12.30;11.07;;;;;;;;;;5073660;28;20445;-82
2021/06/28 02:05:48;;;;;;;13.67;12.13;;;;;;;;;;5073695;28;20793;-81
2021/06/28 02:08:16;;;;;;;14.50;10.97;;;;;;;;;;5073573;28;20443;-81
2021/06/28 02:10:46;;;;;;;12.03;10.83;;;;;;;;;;5074130;28;20438;-81
2021/06/28 02:13:13;;;;;;;13.07;11.67;;;;;;;;;;5074086;28;20477;-81
2021/06/28 02:15:42;;;;;;;13.17;11.83;;;;;;;;;;5073871;28;20441;-81
2021/06/28 02:18:09;;;;;;;12.20;11.10;;;;;;;;;;5073559;28;20432;-82
2021/06/28 02:20:36;;;;;;;13.40;12.00;;;;;;;;;;5074000;28;20937;-82
2021/06/28 02:23:12;;;;;;;13.33;11.97;;;;;;;;;;5073994;28;21006;-81
2021/06/28 02:25:39;;;;;;;12.43;11.23;;;;;;;;;;5073508;28;20434;-82
2021/06/28 02:28:06;;;;;;;17.60;11.60;;;;;;;;;;5073211;28;20446;-81
2021/06/28 02:30:33;;;;;;;13.60;12.20;;;;;;;;;;5073324;28;20472;-81
2021/06/28 02:33:02;;;;;;;13.87;12.47;;;;;;;;;;5073953;28;20594;-82
2021/06/28 02:35:29;;;;;;;13.63;11.63;;;;;;;;;;5074158;28;20494;-81
2021/06/28 02:37:57;;;;;;;12.20;11.03;;;;;;;;;;5073722;28;20862;-82
2021/06/28 02:40:24;;;;;;;14.80;12.70;;;;;;;;;;5073592;28;20800;-79
2021/06/28 02:42:51;;;;;;;13.77;12.47;;;;;;;;;;5073697;28;20449;-82
2021/06/28 02:45:19;;;;;;;12.97;11.63;;;;;;;;;;5073742;28;20429;-83
2021/06/28 02:47:46;;;;;;;14.13;12.70;;;;;;;;;;5074095;28;20479;-83
2021/06/28 02:50:15;;;;;;;13.50;12.20;;;;;;;;;;5073716;28;20436;-81
2021/06/28 02:52:43;;;;;;;14.70;12.17;;;;;;;;;;5073720;28;20968;-80
2021/06/28 02:55:12;;;;;;;14.03;12.40;;;;;;;;;;5073315;28;20490;-81
2021/06/28 02:57:39;;;;;;;12.90;11.67;;;;;;;;;;5073522;28;20434;-81
2021/06/28 03:00:07;;;;;;;13.43;12.13;;;;;;;;;;5073600;28;20525;-81
2021/06/28 03:02:34;;;;;;;13.67;12.20;;;;;;;;;;5073873;28;20528;-81
2021/06/28 03:05:02;;;;;;;13.80;12.50;;;;;;;;;;5073387;28;20477;-81
2021/06/28 03:07:30;;;;;;;14.43;11.60;;;;;;;;;;5073286;28;20501;-80
2021/06/28 03:09:57;;;;;;;16.53;12.27;;;;;;;;;;5073283;28;20437;-80
2021/06/28 03:12:24;;;;;;;13.43;12.07;;;;;;;;;;5073108;28;20536;-80
2021/06/28 03:14:52;;;;;;;14.13;12.83;;;;;;;;;;5075153;28;20487;-80
2021/06/28 03:17:19;;;;;;;18.13;12.33;;;;;;;;;;5075195;28;21021;-80
2021/06/28 03:19:46;;;;;;;12.53;11.33;;;;;;;;;;5077555;28;20531;-80
2021/06/28 03:22:16;;;;;;;16.73;14.43;;;;;;;;;;5075992;28;20515;-81
2021/06/28 03:24:45;;;;;;;14.00;12.70;;;;;;;;;;5075305;28;20484;-80
2021/06/28 03:27:12;;;;;;;14.97;12.37;;;;;;;;;;5075307;28;20533;-80
2021/06/28 03:29:39;;;;;;;15.13;13.63;;;;;;;;;;5074255;28;20441;-80
2021/06/28 03:32:07;;;;;;;15.40;12.50;;;;;;;;;;5077901;28;20482;-80
2021/06/28 03:34:34;;;;;;;15.47;11.87;;;;;;;;;;5075753;28;20478;-79
2021/06/28 03:37:01;;;;;;;12.93;11.70;;;;;;;;;;5075288;28;20455;-80
2021/06/28 03:39:28;;;;;;;16.10;13.30;;;;;;;;;;5074796;28;20547;-81
2021/06/28 03:41:57;;;;;;;14.83;13.13;;;;;;;;;;5077076;28;20531;-80
2021/06/28 03:44:25;;;;;;;15.17;13.67;;;;;;;;;;5076486;28;20963;-80
2021/06/28 03:46:52;;;;;;;17.47;14.30;;;;;;;;;;5076405;28;20572;-80
2021/06/28 03:49:19;;;;;;;15.23;12.87;;;;;;;;;;5077117;28;20546;-79
2021/06/28 03:51:46;;;;;;;15.77;14.13;;;;;;;;;;5076579;28;20451;-79
2021/06/28 03:54:13;;;;;;;15.33;13.73;;;;;;;;;;5076671;28;20513;-78
2021/06/28 03:56:41;;;;;;;14.33;12.93;;;;;;;;;;5076286;28;20440;-78
2021/06/28 03:59:09;;;;;;;17.70;14.30;;;;;;;;;;5076427;28;20445;-78
2021/06/28 04:01:37;;;;;;;17.10;15.30;;;;;;;;;;5076203;28;20459;-79
2021/06/28 04:04:04;;;;;;;15.67;14.17;;;;;;;;;;5075993;28;21016;-79
2021/06/28 04:06:32;;;;;;;17.50;13.33;;;;;;;;;;5076242;28;20433;-79
2021/06/28 04:08:59;;;;;;;14.70;13.20;;;;;;;;;;5076245;28;20433;-79
2021/06/28 04:11:28;;;;;;;14.33;12.90;;;;;;;;;;5076138;28;20551;-77
2021/06/28 04:13:56;;;;;;;18.97;14.70;;;;;;;;;;5076026;28;20468;-79
2021/06/28 04:16:24;;;;;;;15.87;14.17;;;;;;;;;;5076150;28;20453;-74
2021/06/28 04:18:52;;;;;;;15.10;13.70;;;;;;;;;;5075878;28;20439;-78
2021/06/28 04:21:19;;;;;;;15.80;14.10;;;;;;;;;;5075824;28;20472;-79
2021/06/28 04:23:46;;;;;;;16.90;13.90;;;;;;;;;;5076266;28;20523;-79
2021/06/28 04:26:13;;;;;;;15.93;14.10;;;;;;;;;;5075917;28;20539;-78
2021/06/28 04:28:41;;;;;;;16.07;13.37;;;;;;;;;;5067930;28;20480;-78
2021/06/28 04:31:08;;;;;;;18.63;13.87;;;;;;;;;;5064012;28;20529;-78
2021/06/28 04:33:36;;;;;;;16.17;14.47;;;;;;;;;;5055297;28;20479;-77
2021/06/28 04:36:04;;;;;;;15.37;13.87;;;;;;;;;;5055868;28;20434;-79
2021/06/28 04:38:31;;;;;;;19.03;14.73;;;;;;;;;;5055695;28;20437;-77
2021/06/28 04:40:58;;;;;;;15.00;13.50;;;;;;;;;;5056203;28;20437;-76
2021/06/28 04:43:25;;;;;;;16.50;14.00;;;;;;;;;;5055664;28;20859;-77
2021/06/28 04:45:52;;;;;;;15.10;13.60;;;;;;;;;;5055513;28;20520;-78
2021/06/28 04:48:20;;;;;;;15.67;14.17;;;;;;;;;;5056195;28;20432;-78
2021/06/28 04:50:48;;;;;;;17.37;15.53;;;;;;;;;;5055529;28;20446;-78
2021/06/28 04:53:15;;;;;;;15.33;13.83;;;;;;;;;;5054480;28;20512;-77
2021/06/28 04:55:43;;;;;;;16.50;13.33;;;;;;;;;;5055392;28;20882;-76
2021/06/28 04:58:10;;;;;;;15.93;14.13;;;;;;;;;;5061531;28;20443;-77
2021/06/28 05:00:37;;;;;;;16.27;13.53;;;;;;;;;;5074919;28;20448;-77
2021/06/28 05:03:04;;;;;;;15.87;13.70;;;;;;;;;;5074784;28;20788;-77
2021/06/28 05:05:32;;;;;;;15.13;12.83;;;;;;;;;;5064176;28;21031;-76
2021/06/28 05:08:00;;;;;;;15.03;13.53;;;;;;;;;;5073667;28;20450;-75
2021/06/28 05:10:27;;;;;;;17.23;12.90;;;;;;;;;;5074489;28;21027;-75
2021/06/28 05:12:55;;;;;;;13.33;12.03;;;;;;;;;;5074965;28;20527;-75
2021/06/28 05:15:22;;;;;;;18.77;13.80;;;;;;;;;;5074880;28;20482;-76
2021/06/28 05:17:49;;;;;;;16.73;13.80;;;;;;;;;;5075713;28;20546;-75
2021/06/28 05:20:19;;;;;;;16.67;13.40;;;;;;;;;;5074779;28;20524;-75
2021/06/28 05:22:46;;;;;;;14.10;12.80;;;;;;;;;;5074210;28;20441;-75
2021/06/28 05:25:15;;;;;;;15.30;13.70;;;;;;;;;;5074453;28;20431;-75
2021/06/28 05:27:42;;;;;;;19.00;13.80;;;;;;;;;;5074628;28;20849;-72
2021/06/28 05:30:11;;;;;;;17.10;15.47;;;;;;;;;;5074219;28;20533;-72
2021/06/28 05:32:39;;;;;;;16.70;14.97;;;;;;;;;;5075060;28;20492;-72
2021/06/28 05:35:06;;;;;;;15.97;14.47;;;;;;;;;;5074053;28;20479;-69
2021/06/28 05:37:34;;;;;;;15.70;13.53;;;;;;;;;;5074541;28;20444;-71
2021/06/28 05:40:01;;;;;;;16.70;15.07;;;;;;;;;;5074443;28;20533;-71
2021/06/28 05:42:29;;;;;;;16.07;14.57;;;;;;;;;;5074070;28;20477;-71
2021/06/28 05:44:57;;;;;;;17.23;15.23;;;;;;;;;;5073962;28;20445;-70
2021/06/28 05:47:24;;;;;;;17.57;15.77;;;;;;;;;;5074051;28;20469;-71
2021/06/28 05:49:51;;;;;;;16.87;15.17;;;;;;;;;;5074347;28;20445;-71
2021/06/28 05:52:20;;;;;;;15.87;14.23;;;;;;;;;;5074196;28;20799;-71
2021/06/28 05:54:48;;;;;;;17.10;15.33;;;;;;;;;;5074011;28;20478;-71
2021/06/28 05:57:17;;;;;;;15.87;14.23;;;;;;;;;;5074114;28;20540;-70
2021/06/28 05:59:45;;;;;;;19.83;15.77;;;;;;;;;;5073994;28;20468;-70
2021/06/28 06:02:14;;;;;;;17.50;15.70;;;;;;;;;;5073653;28;20446;-70
2021/06/28 06:04:42;;;;;;;17.60;15.80;;;;;;;;;;5074168;28;20448;-70
2021/06/28 06:07:09;;;;;;;21.53;16.67;;;;;;;;;;5074093;28;20537;-70
2021/06/28 06:09:36;;;;;;;16.40;14.70;;;;;;;;;;5073917;28;20445;-70
2021/06/28 06:12:04;;;;;;;16.60;14.50;;;;;;;;;;5073675;28;20467;-70
2021/06/28 06:14:31;;;;;;;20.17;16.27;;;;;;;;;;5073731;28;20561;-70
2021/06/28 06:17:00;;;;;;;18.27;16.37;;;;;;;;;;5073807;28;20474;-70
2021/06/28 06:19:27;;;;;;;17.07;14.23;;;;;;;;;;5073725;28;20804;-70
2021/06/28 06:21:54;;;;;;;16.50;14.90;;;;;;;;;;5073880;28;20496;-70
2021/06/28 06:24:26;;;;;;;17.10;15.07;;;;;;;;;;5073362;28;20540;-70
2021/06/28 06:26:54;;;;;;;15.90;14.30;;;;;;;;;;5073512;28;20915;-70
2021/06/28 06:29:21;;;;;;;18.60;15.23;;;;;;;;;;5073334;28;20443;-70
2021/06/28 06:31:48;;;;;;;19.87;15.23;;;;;;;;;;5073341;28;20848;-70
2021/06/28 06:34:17;;;;;;;18.10;15.70;;;;;;;;;;5073840;28;20595;-70
2021/06/28 06:36:45;;;;;;;19.50;14.40;;;;;;;;;;5073310;28;20460;-70
2021/06/28 06:39:12;;;;;;;15.70;14.10;;;;;;;;;;5074171;28;20883;-71
2021/06/28 06:41:40;;;;;;;14.63;13.13;;;;;;;;;;5073223;28;20486;-70
2021/06/28 06:44:07;;;;;;;16.53;14.83;;;;;;;;;;5073033;28;20461;-71
2021/06/28 06:46:35;;;;;;;16.30;14.57;;;;;;;;;;5073292;28;20471;-70
2021/06/28 06:49:02;;;;;;;19.17;15.97;;;;;;;;;;5073105;28;20977;-70
2021/06/28 06:51:31;;;;;;;15.37;13.87;;;;;;;;;;5073137;28;20460;-70
2021/06/28 06:53:58;;;;;;;15.30;13.63;;;;;;;;;;5072973;28;20995;-70
2021/06/28 06:56:25;;;;;;;17.03;13.27;;;;;;;;;;5073389;28;20512;-70
2021/06/28 06:58:53;;;;;;;15.57;13.97;;;;;;;;;;5073035;28;20479;-70
2021/06/28 07:01:20;;;;;;;16.80;15.00;;;;;;;;;;5074078;28;20450;-70
2021/06/28 07:03:47;;;;;;;18.20;14.17;;;;;;;;;;5073585;28;20462;-69
2021/06/28 07:06:15;;;;;;;18.13;14.00;;;;;;;;;;5073686;28;20445;-69
2021/06/28 07:08:43;;;;;;;18.17;13.87;;;;;;;;;;5073409;28;20530;-69
2021/06/28 07:11:11;;;;;;;16.67;13.77;;;;;;;;;;5073217;28;20447;-69
2021/06/28 07:13:39;;;;;;;15.90;13.00;;;;;;;;;;5072765;28;20487;-70
2021/06/28 07:16:07;;;;;;;19.20;12.60;;;;;;;;;;5075403;28;20490;-69
2021/06/28 07:18:34;;;;;;;17.03;13.77;;;;;;;;;;5076832;28;21032;-70
2021/06/28 07:21:02;;;;;;;15.97;14.30;;;;;;;;;;5077100;28;20878;-69
2021/06/28 07:23:29;;;;;;;15.97;13.30;;;;;;;;;;5077029;28;20513;-70
2021/06/28 07:25:58;;;;;;;15.93;13.30;;;;;;;;;;5076671;28;20471;-69
2021/06/28 07:28:25;;;;;;;14.93;13.53;;;;;;;;;;5077732;28;20432;-69
2021/06/28 07:30:56;;;;;;;15.07;13.40;;;;;;;;;;5076577;28;20447;-70
2021/06/28 07:33:24;;;;;;;14.77;13.20;;;;;;;;;;5076559;28;20432;-70
2021/06/28 07:35:51;;;;;;;17.70;13.80;;;;;;;;;;5076633;28;20566;-69
2021/06/28 07:38:18;;;;;;;15.23;13.60;;;;;;;;;;5076384;28;20929;-69
2021/06/28 07:40:46;;;;;;;14.97;13.60;;;;;;;;;;5076635;28;20539;-70
2021/06/28 07:43:14;;;;;;;14.57;13.17;;;;;;;;;;5076573;28;20527;-69
2021/06/28 07:45:41;;;;;;;14.90;13.40;;;;;;;;;;5076092;28;20808;-69
2021/06/28 07:48:09;;;;;;;17.00;13.40;;;;;;;;;;5077034;28;20437;-69
2021/06/28 07:50:36;;;;;;;14.60;13.20;;;;;;;;;;5076517;28;20641;-70
2021/06/28 07:53:03;;;;;;;14.53;13.03;;;;;;;;;;5076116;28;20528;-69
2021/06/28 07:55:30;;;;;;;14.00;12.70;;;;;;;;;;5076392;28;20482;-69
2021/06/28 07:57:58;;;;;;;18.10;14.40;;;;;;;;;;5076092;28;20440;-69
2021/06/28 08:00:26;;;;;;;15.50;14.00;;;;;;;;;;5076255;28;20451;-69
2021/06/28 08:02:53;;;;;;;16.10;14.37;;;;;;;;;;5076202;28;20448;-69
2021/06/28 08:05:21;;;;;;;15.63;14.07;;;;;;;;;;5076216;28;20544;-69
2021/06/28 08:07:48;;;;;;;15.63;14.03;;;;;;;;;;5075893;28;20433;-69
2021/06/28 08:10:16;;;;;;;15.70;14.10;;;;;;;;;;5076284;28;20479;-69
2021/06/28 08:12:44;;;;;;;14.57;13.13;;;;;;;;;;5076003;28;20450;-69
2021/06/28 08:15:12;;;;;;;15.13;13.73;;;;;;;;;;5075816;28;20551;-69
2021/06/28 08:17:41;;;;;;;16.70;15.20;;;;;;;;;;5075567;28;20460;-69
2021/06/28 08:20:09;;;;;;;16.70;13.47;;;;;;;;;;5075911;28;20449;-69
2021/06/28 08:22:36;;;;;;;17.90;15.50;;;;;;;;;;5075970;28;20438;-69
2021/06/28 08:25:04;;;;;;;15.90;14.23;;;;;;;;;;5075872;28;20437;-69
2021/06/28 08:27:31;;;;;;;15.97;14.30;;;;;;;;;;5074678;28;20441;-69
2021/06/28 08:29:58;;;;;;;17.43;13.37;;;;;;;;;;5075813;28;20443;-70
2021/06/28 08:32:25;;;;;;;14.67;13.13;;;;;;;;;;5075436;28;20869;-69
2021/06/28 08:34:55;;;;;;;15.80;14.30;;;;;;;;;;5075627;28;20492;-69
2021/06/28 08:37:23;;;;;;;17.50;13.90;;;;;;;;;;5075906;28;20441;-69
2021/06/28 08:39:51;;;;;;;15.00;12.83;;;;;;;;;;5075388;28;20469;-69
2021/06/28 08:42:19;;;;;;;13.40;12.10;;;;;;;;;;5075463;28;20797;-69
2021/06/28 08:44:46;;;;;;;13.97;12.50;;;;;;;;;;5075491;28;20814;-69
2021/06/28 08:47:14;;;;;;;12.93;11.67;;;;;;;;;;5075232;28;20572;-69
2021/06/28 08:49:41;;;;;;;12.37;11.37;;;;;;;;;;5074984;28;20481;-69
2021/06/28 08:52:10;;;;;;;13.60;12.20;;;;;;;;;;5075219;28;20434;-69
2021/06/28 08:54:37;;;;;;;15.73;14.23;;;;;;;;;;5074902;28;20475;-69
2021/06/28 08:57:05;;;;;;;17.00;14.70;;;;;;;;;;5074841;28;20517;-69
2021/06/28 08:59:32;;;;;;;16.77;14.93;;;;;;;;;;5075569;28;20455;-69
2021/06/28 09:02:00;;;;;;;14.47;13.07;;;;;;;;;;5075427;28;20436;-69
2021/06/28 09:04:27;;;;;;;13.27;11.97;;;;;;;;;;5075068;28;20480;-69
2021/06/28 09:06:54;;;;;;;13.97;12.47;;;;;;;;;;5075078;28;20856;-69
2021/06/28 09:09:23;;;;;;;16.63;12.40;;;;;;;;;;5074533;28;20483;-69
2021/06/28 09:11:51;;;;;;;13.40;12.00;;;;;;;;;;5074641;28;20776;-69
2021/06/28 09:14:21;;;;;;;13.00;11.60;;;;;;;;;;5075189;28;20519;-69
2021/06/28 09:16:48;;;;;;;12.40;11.30;;;;;;;;;;5074915;28;20497;-69
2021/06/28 09:19:17;;;;;;;13.77;12.43;;;;;;;;;;5075075;28;20443;-69
2021/06/28 09:21:52;;;;;;;13.43;12.10;;;;;;;;;;5074781;28;20842;-69
2021/06/28 09:24:29;;;;;;;13.53;11.23;;;;;;;;;;5075343;28;20420;-69
2021/06/28 09:26:58;;;;;;;13.37;12.27;;;;;;;;;;5074816;28;20781;-69
2021/06/28 09:29:35;;;;;;;14.17;12.73;;;;;;;;;;5074738;28;20437;-69
2021/06/28 09:32:09;;;;;;;12.40;11.13;;;;;;;;;;5074283;28;20979;-69
2021/06/28 09:34:37;;;;;;;13.43;10.93;;;;;;;;;;5074670;28;20429;-69
2021/06/28 09:37:04;;;;;;;13.63;11.30;;;;;;;;;;5074362;28;20619;-69
2021/06/28 09:39:36;;;;;;;12.50;11.47;;;;;;;;;;5074591;28;20878;-69
2021/06/28 09:42:11;;;;;;;13.27;12.10;;;;;;;;;;5074988;28;20781;-69
2021/06/28 09:44:39;;;;;;;11.97;10.97;;;;;;;;;;5074372;28;20483;-69
2021/06/28 09:47:07;;;;;;;11.57;10.60;;;;;;;;;;5074172;28;20487;-68
2021/06/28 09:49:35;;;;;;;12.80;11.70;;;;;;;;;;5074323;28;20550;-69
2021/06/28 09:52:02;;;;;;;13.03;11.20;;;;;;;;;;5073838;28;20448;-69
2021/06/28 09:54:29;;;;;;;12.63;11.53;;;;;;;;;;5074623;28;20464;-69
2021/06/28 09:56:58;;;;;;;11.27;10.30;;;;;;;;;;5073592;28;21048;-68
2021/06/28 09:59:26;;;;;;;13.30;12.30;;;;;;;;;;5073594;28;20539;-68
2021/06/28 10:02:10;;;;;;;13.20;12.00;;;;;;;;;;5074206;28;20434;-68
2021/06/28 10:04:40;;;;;;;13.70;12.50;;;;;;;;;;5074096;28;20793;-68
2021/06/28 10:07:31;;;;;;;15.03;13.47;;;;;;;;;;5073942;28;20413;-68
2021/06/28 10:10:05;;;;;;;12.30;11.20;;;;;;;;;;5054154;28;20420;-68
2021/06/28 10:12:34;;;;;;;13.83;12.63;;;;;;;;;;5073824;28;20415;-68
2021/06/28 10:15:01;;;;;;;14.90;13.50;;;;;;;;;;5073345;28;20439;-68
2021/06/28 10:17:29;;;;;;;12.53;11.53;;;;;;;;;;5073353;28;20948;-68
2021/06/28 10:19:56;;;;;;;12.20;11.10;;;;;;;;;;5073854;28;20874;-68
2021/06/28 10:22:23;;;;;;;12.10;11.00;;;;;;;;;;5073752;28;20449;-68
2021/06/28 10:24:51;;;;;;;11.50;10.50;;;;;;;;;;5073666;28;20442;-68
2021/06/28 10:27:18;;;;;;;12.47;11.50;;;;;;;;;;5073621;28;20480;-68
2021/06/28 10:29:46;;;;;;;11.17;10.30;;;;;;;;;;5073945;28;20515;-68
2021/06/28 10:32:14;;;;;;;13.87;11.60;;;;;;;;;;5073605;28;20449;-68
2021/06/28 10:34:42;;;;;;;12.10;11.00;;;;;;;;;;5073150;28;21034;-68
2021/06/28 10:37:24;;;;;;;14.23;11.83;;;;;;;;;;5073415;28;20889;-68
2021/06/28 10:39:56;;;;;;;12.33;11.17;;;;;;;;;;5073731;28;20437;-68
2021/06/28 10:42:30;;;;;;;14.07;12.77;;;;;;;;;;5073145;28;20425;-68
2021/06/28 10:44:59;;;;;;;13.07;11.97;;;;;;;;;;5073869;28;20428;-68
2021/06/28 10:47:27;;;;;;;11.70;10.60;;;;;;;;;;5072818;28;20473;-68
2021/06/28 10:49:54;;;;;;;13.40;12.20;;;;;;;;;;5072896;28;20445;-68
2021/06/28 10:52:46;;;;;;;12.77;11.57;;;;;;;;;;5072863;28;20938;-68
2021/06/28 10:55:31;;;;;;;12.43;11.27;;;;;;;;;;5072796;28;20490;-68
2021/06/28 10:57:58;;;;;;;14.53;13.23;;;;;;;;;;5059974;28;20485;-68
2021/06/28 11:00:40;;;;;;;11.93;10.90;;;;;;;;;;5073384;28;20432;-68
2021/06/28 11:03:22;;;;;;;12.20;11.20;;;;;;;;;;5072722;28;20451;-68
2021/06/28 11:06:04;;;;;;;14.90;13.60;;;;;;;;;;5073105;28;20477;-68
2021/06/28 11:08:33;;;;;;;13.33;12.07;;;;;;;;;;5072771;28;20490;-68
2021/06/28 11:11:00;;;;;;;12.93;11.57;;;;;;;;;;5073457;28;20419;-68
2021/06/28 11:13:31;;;;;;;12.83;11.80;;;;;;;;;;5073141;28;20450;-69
2021/06/28 11:16:26;;;;;;;13.37;12.13;;;;;;;;;;5073477;28;20491;-68
2021/06/28 11:18:53;;;;;;;13.27;12.03;;;;;;;;;;5072898;28;20540;-68
2021/06/28 11:21:35;;;;;;;12.80;11.80;;;;;;;;;;5073133;28;20447;-68
2021/06/28 11:24:04;;;;;;;12.93;11.70;;;;;;;;;;5072714;28;20414;-68
2021/06/28 11:26:35;;;;;;;11.90;10.90;;;;;;;;;;5072945;28;20606;-68
2021/06/28 11:29:02;;;;;;;10.90;9.90;;;;;;;;;;5073101;28;20490;-69
2021/06/28 11:31:30;;;;;;;11.93;10.97;;;;;;;;;;5073531;28;20419;-68
2021/06/28 11:33:58;;;;;;;12.47;11.47;;;;;;;;;;5072603;28;20500;-68
2021/06/28 11:36:40;;;;;;;12.03;11.13;;;;;;;;;;5072962;28;20500;-69
2021/06/28 11:39:24;;;;;;;12.43;11.20;;;;;;;;;;5072980;28;20433;-68
2021/06/28 11:42:06;;;;;;;11.03;10.00;;;;;;;;;;5073666;28;20428;-68
2021/06/28 11:44:35;;;;;;;10.70;9.70;;;;;;;;;;5072428;28;20791;-69
2021/06/28 11:47:02;;;;;;;11.10;10.30;;;;;;;;;;5072614;28;20447;-68
2021/06/28 11:49:30;;;;;;;12.33;11.03;;;;;;;;;;5073035;28;20523;-68
2021/06/28 11:51:57;;;;;;;12.20;11.30;;;;;;;;;;5072593;28;20480;-68
2021/06/28 11:54:25;;;;;;;12.10;11.10;;;;;;;;;;5073343;28;20527;-68
2021/06/28 11:56:53;;;;;;;11.13;10.13;;;;;;;;;;5073007;28;20480;-68
2021/06/28 11:59:21;;;;;;;13.90;10.17;;;;;;;;;;5073290;28;20441;-68
2021/06/28 12:01:51;;;;;;;12.17;11.07;;;;;;;;;;5074539;28;20526;-68
2021/06/28 12:04:19;;;;;;;10.73;9.87;;;;;;;;;;5076278;28;20444;-68
2021/06/28 12:06:47;;;;;;;11.40;10.50;;;;;;;;;;5076330;28;20412;-68
2021/06/28 12:09:15;;;;;;;10.70;8.93;;;;;;;;;;5076256;28;20419;-68
2021/06/28 12:11:50;;;;;;;10.60;9.70;;;;;;;;;;5076221;28;20492;-68
2021/06/28 12:14:30;;;;;;;9.17;8.40;;;;;;;;;;5076142;28;20437;-68
2021/06/28 12:16:59;;;;;;;9.80;8.90;;;;;;;;;;5075600;28;20534;-69
2021/06/28 12:19:27;;;;;;;9.90;9.10;;;;;;;;;;5076071;28;20416;-68
2021/06/28 12:21:55;;;;;;;10.50;9.70;;;;;;;;;;5075999;28;20512;-68
2021/06/28 12:24:22;;;;;;;9.60;8.80;;;;;;;;;;5075676;28;20526;-67
2021/06/28 12:27:00;;;;;;;9.67;8.87;;;;;;;;;;5075891;28;20465;-68
2021/06/28 12:29:28;;;;;;;9.63;8.73;;;;;;;;;;5076420;28;20436;-67
2021/06/28 12:32:08;;;;;;;8.77;8.17;;;;;;;;;;5075403;28;20514;-67
2021/06/28 12:34:35;;;;;;;10.17;9.27;;;;;;;;;;5075828;28;20934;-68
2021/06/28 12:37:03;;;;;;;9.97;9.17;;;;;;;;;;5075265;28;20563;-67
2021/06/28 12:39:31;;;;;;;11.20;10.03;;;;;;;;;;5075619;28;20473;-68
2021/06/28 12:42:11;;;;;;;10.17;9.07;;;;;;;;;;5075325;28;20494;-68
2021/06/28 12:44:38;;;;;;;10.70;9.77;;;;;;;;;;5076100;28;20513;-69
2021/06/28 12:47:07;;;;;;;10.13;9.23;;;;;;;;;;5075249;28;20859;-71
2021/06/28 12:49:36;;;;;;;9.77;9.07;;;;;;;;;;5075406;28;20867;-69
2021/06/28 12:52:30;;;;;;;11.23;10.23;;;;;;;;;;5075065;28;20506;-69
2021/06/28 12:55:02;;;;;;;10.90;9.90;;;;;;;;;;5028343;28;20445;-68
2021/06/28 12:57:29;;;;;;;14.03;12.63;;;;;;;;;;5074952;28;20564;-69
2021/06/28 12:59:56;;;;;;;14.17;12.87;;;;;;;;;;5075113;28;20549;-69
2021/06/28 13:02:32;;;;;;;12.83;11.73;;;;;;;;;;5075697;28;20449;-69
2021/06/28 13:05:07;;;;;;;13.13;11.90;;;;;;;;;;5075172;28;20498;-69
2021/06/28 13:07:34;;;;;;;13.33;12.20;;;;;;;;;;5075033;28;20445;-69
2021/06/28 13:10:02;;;;;;;14.07;12.77;;;;;;;;;;5075008;28;20449;-68
2021/06/28 13:12:30;;;;;;;14.20;13.00;;;;;;;;;;5068111;28;20469;-69
2021/06/28 13:15:19;;;;;;;14.30;12.90;;;;;;;;;;5061932;28;20489;-69
2021/06/28 13:17:54;;;;;;;15.17;13.80;;;;;;;;;;5054805;28;20479;-69
2021/06/28 13:20:22;;;;;;;16.13;14.63;;;;;;;;;;5054582;28;20433;-69
2021/06/28 13:22:49;;;;;;;18.27;14.60;;;;;;;;;;5054714;28;20532;-69
2021/06/28 13:25:18;;;;;;;17.60;15.10;;;;;;;;;;5055044;28;20441;-69
2021/06/28 13:27:46;;;;;;;14.40;13.17;;;;;;;;;;5054209;28;20447;-69
2021/06/28 13:30:46;;;;;;;14.77;13.47;;;;;;;;;;4973829;28;20406;-69
2021/06/28 13:33:15;;;;;;;14.03;12.80;;;;;;;;;;4973699;28;20450;-69
2021/06/28 13:35:43;;;;;;;12.20;11.17;;;;;;;;;;5009679;28;20430;-69
2021/06/28 13:38:12;;;;;;;10.53;9.63;;;;;;;;;;5054380;28;20462;-69
2021/06/28 13:40:42;;;;;;;10.57;9.67;;;;;;;;;;5054453;28;20425;-68
2021/06/28 13:43:17;;;;;;;10.07;9.07;;;;;;;;;;5070110;28;20791;-68
2021/06/28 13:45:45;;;;;;;10.07;9.20;;;;;;;;;;5074329;28;20453;-68
2021/06/28 13:48:13;;;;;;;9.30;8.60;;;;;;;;;;5074811;28;20851;-69
2021/06/28 13:50:43;;;;;;;10.00;9.20;;;;;;;;;;5074917;28;20437;-68
2021/06/28 13:53:11;;;;;;;11.17;10.00;;;;;;;;;;5074638;28;20442;-69
2021/06/28 13:55:39;;;;;;;10.20;9.30;;;;;;;;;;5073791;28;20504;-68
2021/06/28 13:58:07;;;;;;;9.30;8.10;;;;;;;;;;5074103;28;20556;-68
2021/06/28 14:00:37;;;;;;;9.07;8.30;;;;;;;;;;5074468;28;20435;-68
2021/06/28 14:03:05;;;;;;;8.50;7.73;;;;;;;;;;5074762;28;20474;-68
2021/06/28 14:05:33;;;;;;;9.07;8.37;;;;;;;;;;5073932;28;20956;-68
2021/06/28 14:08:02;;;;;;;9.50;8.70;;;;;;;;;;5073874;28;20454;-68
2021/06/28 14:10:29;;;;;;;8.40;7.80;;;;;;;;;;5073961;28;20558;-67
2021/06/28 14:12:56;;;;;;;9.17;8.37;;;;;;;;;;5073673;28;20801;-68
2021/06/28 14:15:24;;;;;;;9.23;8.33;;;;;;;;;;5073795;28;20531;-69
2021/06/28 14:17:51;;;;;;;8.27;7.33;;;;;;;;;;5073535;28;20523;-68
2021/06/28 14:20:19;;;;;;;13.87;8.67;;;;;;;;;;5073493;28;21031;-68
2021/06/28 14:22:48;;;;;;;8.83;7.93;;;;;;;;;;5073703;28;20527;-68
2021/06/28 14:25:19;;;;;;;9.07;8.37;;;;;;;;;;5072435;28;20530;-68
2021/06/28 14:27:47;;;;;;;13.60;12.30;;;;;;;;;;5073909;28;20479;-68
2021/06/28 14:30:14;;;;;;;9.20;8.40;;;;;;;;;;5073610;28;20527;-68